createdAt,value
2018-03-25T00:01:08.000Z,45.42
2018-03-25T00:03:36.119Z,43.60
2018-03-25T00:06:04.338Z,45.88
2018-03-25T00:08:32.460Z,42.92
2018-03-25T00:11:00.576Z,44.38
2018-03-25T00:13:29.447Z,45.60
2018-03-25T00:15:57.571Z,46.35
2018-03-25T00:18:25.684Z,44.38
2018-03-25T00:20:53.888Z,46.47
2018-03-25T00:23:22.016Z,43.28
2018-03-25T00:25:50.133Z,46.42
2018-03-25T00:28:18.240Z,46.10
2018-03-25T00:30:46.374Z,47.45
2018-03-25T00:33:15.285Z,47.15
2018-03-25T00:35:44.139Z,47.90
2018-03-25T00:38:13.036Z,47.28
2018-03-25T00:40:41.931Z,43.87
2018-03-25T00:43:10.823Z,47.28
2018-03-25T00:45:39.695Z,42.62
2018-03-25T00:48:07.917Z,50.00
2018-03-25T00:50:36.030Z,47.15
2018-03-25T00:53:04.157Z,48.13
2018-03-25T00:55:32.267Z,48.30
2018-03-25T00:58:00.375Z,48.00
2018-03-25T01:00:29.275Z,49.70
2018-03-25T01:02:57.391Z,47.80
2018-03-25T01:05:25.515Z,50.40
2018-03-25T01:07:54.447Z,47.88
2018-03-25T01:10:22.552Z,45.30
2018-03-25T01:12:52.191Z,50.60
2018-03-25T01:15:20.295Z,45.97
2018-03-25T01:17:48.404Z,47.15
2018-03-25T01:20:16.559Z,47.10
2018-03-25T01:22:44.785Z,49.70
2018-03-25T01:25:12.883Z,49.88
2018-03-25T01:27:40.989Z,49.88
2018-03-25T01:30:09.131Z,48.75
2018-03-25T01:32:37.363Z,50.53
2018-03-25T01:35:05.439Z,50.88
2018-03-25T01:37:34.315Z,47.95
2018-03-25T01:40:03.203Z,49.75
2018-03-25T01:42:32.091Z,51.25
2018-03-25T01:45:01.000Z,47.03
2018-03-25T01:47:29.171Z,47.45
2018-03-25T01:49:58.070Z,51.72
2018-03-25T01:52:26.209Z,49.40
2018-03-25T01:54:54.333Z,53.80
2018-03-25T01:57:22.438Z,57.13
2018-03-25T01:59:50.601Z,51.37
2018-03-25T02:02:18.715Z,53.25
2018-03-25T02:04:47.585Z,53.53
2018-03-25T02:07:16.464Z,51.60
2018-03-25T02:09:44.621Z,51.20
2018-03-25T02:12:12.748Z,52.80
2018-03-25T02:14:41.625Z,50.90
2018-03-25T02:17:10.500Z,54.47
2018-03-25T02:19:38.639Z,53.15
2018-03-25T02:22:06.765Z,50.47
2018-03-25T02:24:35.657Z,51.97
2018-03-25T02:27:03.753Z,48.55
2018-03-25T02:29:31.872Z,53.03
2018-03-25T02:32:00.008Z,56.00
2018-03-25T02:34:28.126Z,55.65
2018-03-25T02:36:56.235Z,50.50
2018-03-25T02:39:24.359Z,49.53
2018-03-25T02:41:52.471Z,53.70
2018-03-25T02:44:20.615Z,54.53
2018-03-25T02:46:48.739Z,52.38
2018-03-25T02:49:16.880Z,52.70
2018-03-25T02:51:45.798Z,55.05
2018-03-25T02:54:13.971Z,53.28
2018-03-25T02:56:42.123Z,50.97
2018-03-25T02:59:10.236Z,57.13
2018-03-25T03:01:38.359Z,51.00
2018-03-25T03:04:07.280Z,53.47
2018-03-25T03:06:35.388Z,54.22
2018-03-25T03:09:03.488Z,56.15
2018-03-25T03:11:32.388Z,55.60
2018-03-25T03:14:01.278Z,58.85
2018-03-25T03:16:30.156Z,52.65
2018-03-25T03:18:59.026Z,61.80
2018-03-25T03:21:27.158Z,54.53
2018-03-25T03:23:55.306Z,55.22
2018-03-25T03:26:23.484Z,54.45
2018-03-25T03:28:51.615Z,56.25
2018-03-25T03:31:19.745Z,58.00
2018-03-25T03:33:47.864Z,58.33
2018-03-25T03:36:15.972Z,58.00
2018-03-25T03:38:44.124Z,56.58
2018-03-25T03:41:13.000Z,53.72
2018-03-25T03:43:41.208Z,55.20
2018-03-25T03:46:09.316Z,53.85
2018-03-25T03:48:37.438Z,57.75
2018-03-25T03:51:06.349Z,57.40
2018-03-25T03:53:35.219Z,57.72
2018-03-25T03:56:04.104Z,55.80
2018-03-25T03:58:32.980Z,54.00
2018-03-25T04:01:01.102Z,53.30
2018-03-25T04:03:29.220Z,55.83
2018-03-25T04:05:57.336Z,63.25
2018-03-25T04:08:25.488Z,57.22
2018-03-25T04:10:54.404Z,59.75
2018-03-25T04:13:22.564Z,55.33
2018-03-25T04:15:50.675Z,59.72
2018-03-25T04:18:18.811Z,63.85
2018-03-25T04:20:46.923Z,62.13
2018-03-25T04:23:15.033Z,62.95
2018-03-25T04:25:43.940Z,67.80
2018-03-25T04:28:12.811Z,61.47
2018-03-25T04:30:41.700Z,65.75
2018-03-25T04:33:10.591Z,57.30
2018-03-25T04:35:39.508Z,61.45
2018-03-25T04:38:07.630Z,56.97
2018-03-25T04:40:35.732Z,58.50
2018-03-25T04:43:04.631Z,62.72
2018-03-25T04:45:33.537Z,65.53
2018-03-25T04:48:01.651Z,59.80
2018-03-25T04:50:29.793Z,62.78
2018-03-25T04:52:57.920Z,57.35
2018-03-25T04:55:26.037Z,59.10
2018-03-25T04:57:54.147Z,62.22
2018-03-25T05:00:22.259Z,57.62
2018-03-25T05:02:50.391Z,58.70
2018-03-25T05:05:18.525Z,62.20
2018-03-25T05:07:46.643Z,59.22
2018-03-25T05:10:14.765Z,59.40
2018-03-25T05:12:42.915Z,60.75
2018-03-25T05:15:11.795Z,59.22
2018-03-25T05:17:40.671Z,71.35
2018-03-25T05:20:08.806Z,74.75
2018-03-25T05:22:36.927Z,73.55
2018-03-25T05:25:05.808Z,65.78
2018-03-25T05:27:33.922Z,67.43
2018-03-25T05:30:02.073Z,61.88
2018-03-25T05:32:30.971Z,62.10
2018-03-25T05:34:59.074Z,66.57
2018-03-25T05:37:27.211Z,65.18
2018-03-25T05:39:56.087Z,66.75
2018-03-25T05:42:25.018Z,65.57
2018-03-25T05:44:53.111Z,72.37
2018-03-25T05:47:21.225Z,64.70
2018-03-25T05:49:50.141Z,75.43
2018-03-25T05:52:18.278Z,66.10
2018-03-25T05:54:47.155Z,72.82
2018-03-25T05:57:15.274Z,67.47
2018-03-25T05:59:43.410Z,65.82
2018-03-25T06:02:11.543Z,58.13
2018-03-25T06:04:39.673Z,61.92
2018-03-25T06:07:08.604Z,58.53
2018-03-25T06:09:36.743Z,62.35
2018-03-25T06:12:04.876Z,60.80
2018-03-25T06:14:32.999Z,57.92
2018-03-25T06:17:01.121Z,55.75
2018-03-25T06:19:29.245Z,50.38
2018-03-25T06:21:57.360Z,55.12
2018-03-25T06:24:25.471Z,55.85
2018-03-25T06:26:53.590Z,54.25
2018-03-25T06:29:21.760Z,58.30
2018-03-25T06:31:49.886Z,70.20
2018-03-25T06:34:18.063Z,73.37
2018-03-25T06:36:46.191Z,70.85
2018-03-25T06:39:14.314Z,63.45
2018-03-25T06:41:42.442Z,60.55
2018-03-25T06:44:10.648Z,73.82
2018-03-25T06:46:39.528Z,66.07
2018-03-25T06:49:08.414Z,75.78
2018-03-25T06:51:37.324Z,69.28
2018-03-25T06:54:05.444Z,75.22
2018-03-25T06:56:33.558Z,73.30
2018-03-25T06:59:02.453Z,71.87
2018-03-25T07:01:31.332Z,76.28
2018-03-25T07:04:00.252Z,73.93
2018-03-25T07:06:28.359Z,73.03
2018-03-25T07:08:56.580Z,73.50
2018-03-25T07:11:25.494Z,80.03
2018-03-25T07:13:53.614Z,79.00
2018-03-25T07:16:21.720Z,75.10
2018-03-25T07:18:50.587Z,69.93
2018-03-25T07:21:19.491Z,66.72
2018-03-25T07:23:48.428Z,67.85
2018-03-25T07:26:16.536Z,71.10
2018-03-25T07:28:44.684Z,72.57
2018-03-25T07:31:12.808Z,67.25
2018-03-25T07:33:40.967Z,67.03
2018-03-25T07:36:09.843Z,67.20
2018-03-25T07:38:37.955Z,70.20
2018-03-25T07:41:06.103Z,66.40
2018-03-25T07:43:35.012Z,67.90
2018-03-25T07:46:03.088Z,68.80
2018-03-25T07:48:31.267Z,67.78
2018-03-25T07:50:59.449Z,66.97
2018-03-25T07:53:27.551Z,63.90
2018-03-25T07:55:55.659Z,66.93
2018-03-25T07:58:24.565Z,65.75
2018-03-25T08:00:52.683Z,62.38
2018-03-25T08:03:20.903Z,60.97
2018-03-25T08:05:49.019Z,59.42
2018-03-25T08:08:17.131Z,61.33
2018-03-25T08:10:46.035Z,60.50
2018-03-25T08:13:14.923Z,59.90
2018-03-25T08:15:43.803Z,62.42
2018-03-25T08:18:12.679Z,60.95
2018-03-25T08:20:40.879Z,60.47
2018-03-25T08:23:09.807Z,57.08
2018-03-25T08:25:37.955Z,57.50
2018-03-25T08:28:06.073Z,55.53
2018-03-25T08:30:34.195Z,55.97
2018-03-25T08:33:02.345Z,54.33
2018-03-25T08:35:31.239Z,55.58
2018-03-25T08:38:00.119Z,54.90
2018-03-25T08:40:29.033Z,52.88
2018-03-25T08:42:57.187Z,50.45
2018-03-25T08:45:25.355Z,51.22
2018-03-25T08:47:53.453Z,49.75
2018-03-25T08:50:21.561Z,47.90
2018-03-25T08:52:49.785Z,48.78
2018-03-25T08:55:18.656Z,48.00
2018-03-25T08:57:48.272Z,47.17
2018-03-25T09:00:16.399Z,47.72
2018-03-25T09:02:44.534Z,47.35
2018-03-25T09:05:12.666Z,46.72
2018-03-25T09:07:40.778Z,46.40
2018-03-25T09:10:08.888Z,48.42
2018-03-25T09:12:37.032Z,50.17
2018-03-25T09:15:05.154Z,46.60
2018-03-25T09:17:33.258Z,47.22
2018-03-25T09:20:02.133Z,46.22
2018-03-25T09:22:31.030Z,41.60
2018-03-25T09:24:59.958Z,40.90
2018-03-25T09:27:28.072Z,41.90
2018-03-25T09:29:56.174Z,46.63
2018-03-25T09:32:25.102Z,44.60
2018-03-25T09:34:53.229Z,41.28
2018-03-25T09:37:21.422Z,42.75
2018-03-25T09:39:49.560Z,44.28
2018-03-25T09:42:17.698Z,45.22
2018-03-25T09:44:45.809Z,42.33
2018-03-25T09:47:14.000Z,42.95
2018-03-25T09:49:42.874Z,42.17
2018-03-25T09:52:11.756Z,43.28
2018-03-25T09:54:39.975Z,41.35
2018-03-25T09:57:08.080Z,40.67
2018-03-25T09:59:36.186Z,42.13
2018-03-25T10:02:05.076Z,38.50
2018-03-25T10:04:33.186Z,40.25
2018-03-25T10:07:01.332Z,42.42
2018-03-25T10:09:29.474Z,38.55
2018-03-25T10:11:57.588Z,37.33
2018-03-25T10:14:25.766Z,35.00
2018-03-25T10:16:54.616Z,36.65
2018-03-25T10:19:22.746Z,35.47
2018-03-25T10:21:50.864Z,34.25
2018-03-25T10:24:19.880Z,35.58
2018-03-25T10:26:48.763Z,32.65
2018-03-25T10:29:17.655Z,37.53
2018-03-25T10:31:46.572Z,35.97
2018-03-25T10:34:14.722Z,33.92
2018-03-25T10:36:43.632Z,33.42
2018-03-25T10:39:11.829Z,32.13
2018-03-25T10:41:39.950Z,34.15
2018-03-25T10:44:08.899Z,31.95
2018-03-25T10:46:37.024Z,34.30
2018-03-25T10:49:05.904Z,35.88
2018-03-25T10:51:34.061Z,32.60
2018-03-25T10:54:02.191Z,31.77
2018-03-25T10:56:30.328Z,30.83
2018-03-25T10:58:59.339Z,29.52
2018-03-25T11:01:27.511Z,29.58
2018-03-25T11:03:55.713Z,34.53
2018-03-25T11:06:23.973Z,30.27
2018-03-25T11:08:52.081Z,28.48
2018-03-25T11:11:20.199Z,29.08
2018-03-25T11:13:48.339Z,28.55
2018-03-25T11:16:17.297Z,28.85
2018-03-25T11:18:46.159Z,33.42
2018-03-25T11:21:14.310Z,30.98
2018-03-25T11:23:43.203Z,32.28
2018-03-25T11:26:12.113Z,31.20
2018-03-25T11:28:40.231Z,30.12
2018-03-25T11:31:08.359Z,29.80
2018-03-25T11:33:36.525Z,30.27
2018-03-25T11:36:05.448Z,30.48
2018-03-25T11:38:33.599Z,30.27
2018-03-25T11:41:01.722Z,29.60
2018-03-25T11:43:29.887Z,29.60
2018-03-25T11:45:58.127Z,30.12
2018-03-25T11:48:26.274Z,32.13
2018-03-25T11:50:55.878Z,29.98
2018-03-25T11:53:24.945Z,30.90
2018-03-25T11:55:53.069Z,30.90
2018-03-25T11:58:21.183Z,33.10
2018-03-25T12:00:49.407Z,30.92
2018-03-25T12:03:17.561Z,32.60
2018-03-25T12:05:46.574Z,31.45
2018-03-25T12:08:14.715Z,32.50
2018-03-25T12:10:43.611Z,31.40
2018-03-25T12:13:12.523Z,32.17
2018-03-25T12:15:41.450Z,29.65
2018-03-25T12:18:09.587Z,33.42
2018-03-25T12:20:37.719Z,32.78
2018-03-25T12:23:05.935Z,32.63
2018-03-25T12:25:34.082Z,32.10
2018-03-25T12:28:03.018Z,35.55
2018-03-25T12:30:31.155Z,30.70
2018-03-25T12:32:59.295Z,31.77
2018-03-25T12:35:27.446Z,33.95
2018-03-25T12:37:55.564Z,35.53
2018-03-25T12:40:23.770Z,31.37
2018-03-25T12:42:51.927Z,32.57
2018-03-25T12:45:20.833Z,32.93
2018-03-25T12:47:48.957Z,31.45
2018-03-25T12:50:17.094Z,33.33
2018-03-25T12:52:45.360Z,32.42
2018-03-25T12:55:13.561Z,31.67
2018-03-25T12:57:41.815Z,32.27
2018-03-25T13:00:09.944Z,32.30
2018-03-25T13:02:39.578Z,29.12
2018-03-25T13:05:08.482Z,30.00
2018-03-25T13:07:36.612Z,33.37
2018-03-25T13:10:04.738Z,31.60
2018-03-25T13:12:32.894Z,33.17
2018-03-25T13:15:01.792Z,33.63
2018-03-25T13:17:29.946Z,34.00
2018-03-25T13:19:58.839Z,33.10
2018-03-25T13:22:27.746Z,31.43
2018-03-25T13:24:56.652Z,31.67
2018-03-25T13:27:24.796Z,28.80
2018-03-25T13:29:53.702Z,34.30
2018-03-25T13:32:22.041Z,32.13
2018-03-25T13:34:50.208Z,34.83
2018-03-25T13:37:18.325Z,32.77
2018-03-25T13:39:46.496Z,33.43
2018-03-25T13:42:14.615Z,32.83
2018-03-25T13:44:42.996Z,33.53
2018-03-25T13:47:11.118Z,32.80
2018-03-25T13:49:39.321Z,33.73
2018-03-25T13:52:07.429Z,34.27
2018-03-25T13:54:35.592Z,33.63
2018-03-25T13:57:03.720Z,32.20
2018-03-25T13:59:31.847Z,35.80
2018-03-25T14:01:59.992Z,33.63
2018-03-25T14:04:28.911Z,35.07
2018-03-25T14:06:57.228Z,33.80
2018-03-25T14:09:25.407Z,34.73
2018-03-25T14:11:53.532Z,33.83
2018-03-25T14:14:23.264Z,37.07
2018-03-25T14:16:52.162Z,38.07
2018-03-25T14:19:21.193Z,35.17
2018-03-25T14:21:49.309Z,35.87
2018-03-25T14:24:17.509Z,36.73
2018-03-25T14:26:46.407Z,39.20
2018-03-25T14:29:14.535Z,41.30
2018-03-25T14:31:42.655Z,40.07
2018-03-25T14:34:10.822Z,37.53
2018-03-25T14:36:38.981Z,38.47
2018-03-25T14:39:07.865Z,37.00
2018-03-25T14:41:36.797Z,39.70
2018-03-25T14:44:05.061Z,39.17
2018-03-25T14:46:33.181Z,39.50
2018-03-25T14:49:01.311Z,40.80
2018-03-25T14:51:29.436Z,41.00
2018-03-25T14:53:57.568Z,37.60
2018-03-25T14:56:25.699Z,40.83
2018-03-25T14:58:54.727Z,42.37
2018-03-25T15:01:22.885Z,40.57
2018-03-25T15:03:51.055Z,44.93
2018-03-25T15:06:19.923Z,46.20
2018-03-25T15:08:48.840Z,48.70
2018-03-25T15:11:17.717Z,45.40
2018-03-25T15:13:46.623Z,47.07
2018-03-25T15:16:14.776Z,46.13
2018-03-25T15:18:43.682Z,51.43
2018-03-25T15:21:11.813Z,49.87
2018-03-25T15:23:39.925Z,50.47
2018-03-25T15:26:08.806Z,49.77
2018-03-25T15:28:37.719Z,51.63
2018-03-25T15:31:05.855Z,50.33
2018-03-25T15:33:33.987Z,49.70
2018-03-25T15:36:02.137Z,50.37
2018-03-25T15:38:30.410Z,50.40
2018-03-25T15:40:58.550Z,51.17
2018-03-25T15:43:26.668Z,49.63
2018-03-25T15:45:54.808Z,56.37
2018-03-25T15:48:23.850Z,50.00
2018-03-25T15:50:51.956Z,51.87
2018-03-25T15:53:20.160Z,51.17
2018-03-25T15:55:49.182Z,50.57
2018-03-25T15:58:17.356Z,54.17
2018-03-25T16:00:45.530Z,51.57
2018-03-25T16:03:13.667Z,51.90
2018-03-25T16:05:42.552Z,52.93
2018-03-25T16:08:11.444Z,50.93
2018-03-25T16:10:40.393Z,51.83
2018-03-25T16:13:08.515Z,50.83
2018-03-25T16:15:36.651Z,51.47
2018-03-25T16:18:04.800Z,52.07
2018-03-25T16:20:32.952Z,51.80
2018-03-25T16:23:01.069Z,49.80
2018-03-25T16:25:29.202Z,50.45
2018-03-25T16:27:57.365Z,47.70
2018-03-25T16:30:25.486Z,48.63
2018-03-25T16:32:53.706Z,52.93
2018-03-25T16:35:21.864Z,52.87
2018-03-25T16:37:50.788Z,53.60
2018-03-25T16:40:18.900Z,52.47
2018-03-25T16:42:47.786Z,50.60
2018-03-25T16:45:16.002Z,54.73
2018-03-25T16:47:44.197Z,52.47
2018-03-25T16:50:12.332Z,54.93
2018-03-25T16:52:41.229Z,55.63
2018-03-25T16:55:09.381Z,52.47
2018-03-25T16:57:37.462Z,57.63
2018-03-25T17:00:05.608Z,53.63
2018-03-25T17:02:33.726Z,50.53
2018-03-25T17:05:02.625Z,52.03
2018-03-25T17:07:31.548Z,56.87
2018-03-25T17:09:59.679Z,52.47
2018-03-25T17:12:28.609Z,55.13
2018-03-25T17:14:56.756Z,54.97
2018-03-25T17:17:25.016Z,54.60
2018-03-25T17:19:54.022Z,56.87
2018-03-25T17:22:22.183Z,55.70
2018-03-25T17:24:51.110Z,58.10
2018-03-25T17:27:19.360Z,57.33
2018-03-25T17:29:47.508Z,58.83
2018-03-25T17:32:15.702Z,57.33
2018-03-25T17:34:43.836Z,59.45
2018-03-25T17:37:11.980Z,58.67
2018-03-25T17:39:40.141Z,56.77
2018-03-25T17:42:09.026Z,59.20
2018-03-25T17:44:37.891Z,58.37
2018-03-25T17:47:07.080Z,55.87
2018-03-25T17:49:35.448Z,57.08
2018-03-25T17:52:05.072Z,59.08
2018-03-25T17:54:34.012Z,57.25
2018-03-25T17:57:02.132Z,55.90
2018-03-25T17:59:31.129Z,59.40
2018-03-25T18:02:00.016Z,54.88
2018-03-25T18:04:28.932Z,61.28
2018-03-25T18:06:57.124Z,61.15
2018-03-25T18:09:25.281Z,54.65
2018-03-25T18:11:53.424Z,56.00
2018-03-25T18:14:23.096Z,62.40
2018-03-25T18:16:51.225Z,59.72
2018-03-25T18:19:20.211Z,57.03
2018-03-25T18:21:48.285Z,56.88
2018-03-25T18:24:17.216Z,58.72
2018-03-25T18:26:45.368Z,58.92
2018-03-25T18:29:14.279Z,56.70
2018-03-25T18:31:42.407Z,55.88
2018-03-25T18:34:11.312Z,54.88
2018-03-25T18:36:39.447Z,58.83
2018-03-25T18:39:07.664Z,56.10
2018-03-25T18:41:35.836Z,53.50
2018-03-25T18:44:03.964Z,55.83
2018-03-25T18:46:32.175Z,55.10
2018-03-25T18:49:01.179Z,57.90
2018-03-25T18:51:29.305Z,52.08
2018-03-25T18:53:57.427Z,55.42
2018-03-25T18:56:25.578Z,50.80
2018-03-25T18:58:54.466Z,50.03
2018-03-25T19:01:23.406Z,51.70
2018-03-25T19:03:51.508Z,48.72
2018-03-25T19:06:19.643Z,51.30
2018-03-25T19:08:47.823Z,48.95
2018-03-25T19:11:15.941Z,51.33
2018-03-25T19:13:45.645Z,48.85
2018-03-25T19:16:14.563Z,47.72
2018-03-25T19:18:43.453Z,48.92
2018-03-25T19:21:12.479Z,47.90
2018-03-25T19:23:40.639Z,47.60
2018-03-25T19:26:08.803Z,48.00
2018-03-25T19:28:36.975Z,47.45
2018-03-25T19:31:05.148Z,46.83
2018-03-25T19:33:34.023Z,47.60
2018-03-25T19:36:02.955Z,48.65
2018-03-25T19:38:31.127Z,50.25
2018-03-25T19:40:59.253Z,48.72
2018-03-25T19:43:28.172Z,49.10
2018-03-25T19:45:56.332Z,47.47
2018-03-25T19:48:25.223Z,48.90
2018-03-25T19:50:53.383Z,49.50
2018-03-25T19:53:22.279Z,47.83
2018-03-25T19:55:51.169Z,52.22
2018-03-25T19:58:20.076Z,51.88
2018-03-25T20:00:48.262Z,48.92
2018-03-25T20:03:16.371Z,52.42
2018-03-25T20:05:44.487Z,50.20
2018-03-25T20:08:12.631Z,52.35
2018-03-25T20:10:42.267Z,55.63
2018-03-25T20:13:11.150Z,52.88
2018-03-25T20:15:40.034Z,53.97
2018-03-25T20:18:08.956Z,58.50
2018-03-25T20:20:37.112Z,61.75
2018-03-25T20:23:05.995Z,57.15
2018-03-25T20:25:34.890Z,55.00
2018-03-25T20:28:03.944Z,61.00
2018-03-25T20:30:32.075Z,59.13
2018-03-25T20:33:00.190Z,61.47
2018-03-25T20:35:28.412Z,59.95
2018-03-25T20:37:56.585Z,61.85
2018-03-25T20:40:24.725Z,66.18
2018-03-25T20:42:52.930Z,68.00
2018-03-25T20:45:21.110Z,63.13
2018-03-25T20:47:49.245Z,62.65
2018-03-25T20:50:18.993Z,67.25
2018-03-25T20:52:47.184Z,63.55
2018-03-25T20:55:15.283Z,66.12
2018-03-25T20:57:43.392Z,65.22
2018-03-25T21:00:12.296Z,64.00
2018-03-25T21:02:40.479Z,67.40
2018-03-25T21:05:08.548Z,65.30
2018-03-25T21:07:36.667Z,64.97
2018-03-25T21:10:04.794Z,64.07
2018-03-25T21:12:32.950Z,60.45
2018-03-25T21:15:01.836Z,67.45
2018-03-25T21:17:30.715Z,61.67
2018-03-25T21:19:59.620Z,68.32
2018-03-25T21:22:28.508Z,61.33
2018-03-25T21:24:57.392Z,62.17
2018-03-25T21:27:25.524Z,65.72
2018-03-25T21:29:53.644Z,64.55
2018-03-25T21:32:22.655Z,61.22
2018-03-25T21:34:50.836Z,61.92
2018-03-25T21:37:18.957Z,64.12
2018-03-25T21:39:47.098Z,64.07
2018-03-25T21:42:15.363Z,63.17
2018-03-25T21:44:43.537Z,60.80
2018-03-25T21:47:11.696Z,60.67
2018-03-25T21:49:39.832Z,58.10
2018-03-25T21:52:08.767Z,59.35
2018-03-25T21:54:36.891Z,61.75
2018-03-25T21:57:05.109Z,56.28
2018-03-25T21:59:33.235Z,57.15
2018-03-25T22:02:01.462Z,57.35
2018-03-25T22:04:30.011Z,57.38
2018-03-25T22:06:58.233Z,55.28
2018-03-25T22:09:26.362Z,56.42
2018-03-25T22:11:55.255Z,52.20
2018-03-25T22:14:24.160Z,56.47
2018-03-25T22:16:53.053Z,50.42
2018-03-25T22:19:21.203Z,54.22
2018-03-25T22:21:50.110Z,51.83
2018-03-25T22:24:19.019Z,49.90
2018-03-25T22:26:47.187Z,52.75
2018-03-25T22:29:15.317Z,51.67
2018-03-25T22:31:43.526Z,50.65
2018-03-25T22:34:11.648Z,50.42
2018-03-25T22:36:39.884Z,48.83
2018-03-25T22:39:08.017Z,50.88
2018-03-25T22:41:36.139Z,48.13
2018-03-25T22:44:04.264Z,49.45
2018-03-25T22:46:33.168Z,49.40
2018-03-25T22:49:02.077Z,49.75
2018-03-25T22:51:30.229Z,49.97
2018-03-25T22:53:59.137Z,48.70
2018-03-25T22:56:27.309Z,47.65
2018-03-25T22:58:55.446Z,49.53
2018-03-25T23:01:24.376Z,49.38
2018-03-25T23:03:52.540Z,47.30
2018-03-25T23:06:21.420Z,46.13
2018-03-25T23:08:50.349Z,47.88
2018-03-25T23:11:18.484Z,44.35
2018-03-25T23:13:47.418Z,45.83
2018-03-25T23:16:15.544Z,47.15
2018-03-25T23:18:43.664Z,44.80
2018-03-25T23:21:11.812Z,47.58
2018-03-25T23:23:40.734Z,43.92
2018-03-25T23:26:08.851Z,45.17
2018-03-25T23:28:37.820Z,45.17
2018-03-25T23:31:06.033Z,44.28
2018-03-25T23:33:34.944Z,45.65
2018-03-25T23:36:03.050Z,44.03
2018-03-25T23:38:31.168Z,47.35
2018-03-25T23:41:00.068Z,44.95
2018-03-25T23:43:28.212Z,43.03
2018-03-25T23:45:56.308Z,45.72
2018-03-25T23:48:24.416Z,42.88
2018-03-25T23:50:52.637Z,42.42
2018-03-25T23:53:22.364Z,43.30
2018-03-25T23:55:51.246Z,44.72
2018-03-25T23:58:20.118Z,42.75
